sensor_id;sensor_type;location;lat;lon;timestamp;P1;durP1;ratioP1;P2;durP2;ratioP2
42538;SDS011;28173;51.376;6.760;2023-01-16T00:00:19;4.55;;;1.40;;
42538;SDS011;28173;51.376;6.760;2023-01-16T00:02:46;4.60;;;1.67;;
42538;SDS011;28173;51.376;6.760;2023-01-16T00:05:15;6.38;;;1.30;;
42538;SDS011;28173;51.376;6.760;2023-01-16T00:07:42;4.93;;;1.75;;
42538;SDS011;28173;51.376;6.760;2023-01-16T00:10:08;1.92;;;1.10;;
42538;SDS011;28173;51.376;6.760;2023-01-16T00:12:36;3.05;;;1.20;;
42538;SDS011;28173;51.376;6.760;2023-01-16T00:15:05;4.07;;;1.35;;
42538;SDS011;28173;51.376;6.760;2023-01-16T00:17:35;2.30;;;1.20;;
42538;SDS011;28173;51.376;6.760;2023-01-16T00:20:04;3.75;;;1.38;;
42538;SDS011;28173;51.376;6.760;2023-01-16T00:22:32;3.15;;;1.20;;
42538;SDS011;28173;51.376;6.760;2023-01-16T00:24:58;3.53;;;1.30;;
42538;SDS011;28173;51.376;6.760;2023-01-16T00:27:27;3.88;;;1.38;;
42538;SDS011;28173;51.376;6.760;2023-01-16T00:29:54;6.00;;;1.90;;
42538;SDS011;28173;51.376;6.760;2023-01-16T00:32:21;3.40;;;1.35;;
42538;SDS011;28173;51.376;6.760;2023-01-16T00:34:50;1.50;;;1.10;;
42538;SDS011;28173;51.376;6.760;2023-01-16T00:37:16;4.13;;;1.30;;
42538;SDS011;28173;51.376;6.760;2023-01-16T00:39:45;3.40;;;1.25;;
42538;SDS011;28173;51.376;6.760;2023-01-16T00:42:11;6.80;;;1.20;;
42538;SDS011;28173;51.376;6.760;2023-01-16T00:44:38;3.58;;;1.40;;
42538;SDS011;28173;51.376;6.760;2023-01-16T00:47:05;5.75;;;1.10;;
42538;SDS011;28173;51.376;6.760;2023-01-16T00:49:32;3.78;;;1.23;;
42538;SDS011;28173;51.376;6.760;2023-01-16T00:51:59;3.70;;;1.10;;
42538;SDS011;28173;51.376;6.760;2023-01-16T00:54:25;4.35;;;1.20;;
42538;SDS011;28173;51.376;6.760;2023-01-16T00:56:52;3.25;;;1.10;;
42538;SDS011;28173;51.376;6.760;2023-01-16T00:59:19;4.15;;;1.27;;
42538;SDS011;28173;51.376;6.760;2023-01-16T01:01:48;2.90;;;1.58;;
42538;SDS011;28173;51.376;6.760;2023-01-16T01:04:15;5.05;;;1.05;;
42538;SDS011;28173;51.376;6.760;2023-01-16T01:06:51;4.63;;;2.23;;
42538;SDS011;28173;51.376;6.760;2023-01-16T01:09:17;2.65;;;1.13;;
42538;SDS011;28173;51.376;6.760;2023-01-16T01:11:44;6.38;;;1.60;;
42538;SDS011;28173;51.376;6.760;2023-01-16T01:14:11;4.43;;;1.25;;
42538;SDS011;28173;51.376;6.760;2023-01-16T01:16:39;2.70;;;1.27;;
42538;SDS011;28173;51.376;6.760;2023-01-16T01:19:06;3.42;;;1.60;;
42538;SDS011;28173;51.376;6.760;2023-01-16T01:21:36;4.68;;;1.55;;
42538;SDS011;28173;51.376;6.760;2023-01-16T01:24:02;3.97;;;1.80;;
42538;SDS011;28173;51.376;6.760;2023-01-16T01:26:29;6.18;;;1.85;;
42538;SDS011;28173;51.376;6.760;2023-01-16T01:28:56;5.15;;;1.48;;
42538;SDS011;28173;51.376;6.760;2023-01-16T01:31:22;4.72;;;1.45;;
42538;SDS011;28173;51.376;6.760;2023-01-16T01:33:49;4.18;;;1.30;;
42538;SDS011;28173;51.376;6.760;2023-01-16T01:36:18;4.68;;;1.40;;
42538;SDS011;28173;51.376;6.760;2023-01-16T01:38:45;4.32;;;1.33;;
42538;SDS011;28173;51.376;6.760;2023-01-16T01:41:12;3.55;;;1.50;;
42538;SDS011;28173;51.376;6.760;2023-01-16T01:46:18;3.28;;;1.30;;
42538;SDS011;28173;51.376;6.760;2023-01-16T01:48:47;3.70;;;1.60;;
42538;SDS011;28173;51.376;6.760;2023-01-16T01:51:19;2.85;;;1.20;;
42538;SDS011;28173;51.376;6.760;2023-01-16T01:53:52;3.70;;;1.30;;
42538;SDS011;28173;51.376;6.760;2023-01-16T01:56:28;6.30;;;1.42;;
42538;SDS011;28173;51.376;6.760;2023-01-16T01:58:58;3.60;;;1.33;;
42538;SDS011;28173;51.376;6.760;2023-01-16T02:01:28;3.83;;;1.48;;
42538;SDS011;28173;51.376;6.760;2023-01-16T02:03:57;5.13;;;1.50;;
42538;SDS011;28173;51.376;6.760;2023-01-16T02:06:34;4.18;;;1.30;;
42538;SDS011;28173;51.376;6.760;2023-01-16T02:09:05;5.43;;;1.40;;
42538;SDS011;28173;51.376;6.760;2023-01-16T02:14:04;6.50;;;1.48;;
42538;SDS011;28173;51.376;6.760;2023-01-16T02:16:32;7.03;;;1.63;;
42538;SDS011;28173;51.376;6.760;2023-01-16T02:19:21;2.60;;;1.27;;
42538;SDS011;28173;51.376;6.760;2023-01-16T02:25:15;3.37;;;1.30;;
42538;SDS011;28173;51.376;6.760;2023-01-16T02:50:57;2.63;;;1.33;;
42538;SDS011;28173;51.376;6.760;2023-01-16T02:56:22;4.75;;;1.30;;
42538;SDS011;28173;51.376;6.760;2023-01-16T02:58:53;5.30;;;1.30;;
42538;SDS011;28173;51.376;6.760;2023-01-16T03:01:19;4.90;;;1.25;;
42538;SDS011;28173;51.376;6.760;2023-01-16T03:11:29;7.38;;;1.83;;
42538;SDS011;28173;51.376;6.760;2023-01-16T03:19:32;5.57;;;1.55;;
42538;SDS011;28173;51.376;6.760;2023-01-16T03:30:51;3.67;;;1.40;;
42538;SDS011;28173;51.376;6.760;2023-01-16T03:36:06;3.03;;;1.10;;
42538;SDS011;28173;51.376;6.760;2023-01-16T03:38:55;2.40;;;1.10;;
42538;SDS011;28173;51.376;6.760;2023-01-16T03:41:23;5.43;;;2.55;;
42538;SDS011;28173;51.376;6.760;2023-01-16T03:43:53;4.53;;;1.20;;
42538;SDS011;28173;51.376;6.760;2023-01-16T03:46:48;2.60;;;1.80;;
42538;SDS011;28173;51.376;6.760;2023-01-16T03:49:15;2.63;;;1.13;;
42538;SDS011;28173;51.376;6.760;2023-01-16T03:51:46;3.90;;;1.42;;
42538;SDS011;28173;51.376;6.760;2023-01-16T03:57:07;1.58;;;0.90;;
42538;SDS011;28173;51.376;6.760;2023-01-16T03:59:43;2.03;;;1.15;;
42538;SDS011;28173;51.376;6.760;2023-01-16T04:02:12;1.77;;;0.95;;
42538;SDS011;28173;51.376;6.760;2023-01-16T04:07:29;2.58;;;1.35;;
42538;SDS011;28173;51.376;6.760;2023-01-16T04:09:59;1.85;;;0.90;;
42538;SDS011;28173;51.376;6.760;2023-01-16T04:12:28;1.70;;;0.93;;
42538;SDS011;28173;51.376;6.760;2023-01-16T04:14:58;1.38;;;0.80;;
42538;SDS011;28173;51.376;6.760;2023-01-16T04:17:29;1.58;;;0.90;;
42538;SDS011;28173;51.376;6.760;2023-01-16T04:19:56;2.03;;;0.95;;
42538;SDS011;28173;51.376;6.760;2023-01-16T04:22:25;1.10;;;0.75;;
42538;SDS011;28173;51.376;6.760;2023-01-16T04:24:58;1.08;;;0.70;;
42538;SDS011;28173;51.376;6.760;2023-01-16T04:27:28;3.33;;;1.10;;
42538;SDS011;28173;51.376;6.760;2023-01-16T04:29:54;1.40;;;0.80;;
42538;SDS011;28173;51.376;6.760;2023-01-16T04:32:21;0.65;;;0.50;;
42538;SDS011;28173;51.376;6.760;2023-01-16T04:34:48;1.48;;;0.98;;
42538;SDS011;28173;51.376;6.760;2023-01-16T04:37:15;1.42;;;1.00;;
42538;SDS011;28173;51.376;6.760;2023-01-16T04:39:43;1.50;;;0.70;;
42538;SDS011;28173;51.376;6.760;2023-01-16T04:42:10;2.75;;;0.80;;
42538;SDS011;28173;51.376;6.760;2023-01-16T04:44:37;1.65;;;0.80;;
42538;SDS011;28173;51.376;6.760;2023-01-16T04:47:04;0.95;;;0.88;;
42538;SDS011;28173;51.376;6.760;2023-01-16T04:49:30;1.17;;;0.80;;
42538;SDS011;28173;51.376;6.760;2023-01-16T04:52:00;1.55;;;0.70;;
42538;SDS011;28173;51.376;6.760;2023-01-16T04:54:26;1.65;;;1.20;;
42538;SDS011;28173;51.376;6.760;2023-01-16T04:56:53;1.05;;;0.70;;
42538;SDS011;28173;51.376;6.760;2023-01-16T04:59:20;2.15;;;1.08;;
42538;SDS011;28173;51.376;6.760;2023-01-16T05:01:46;4.90;;;1.23;;
42538;SDS011;28173;51.376;6.760;2023-01-16T05:04:14;2.40;;;1.13;;
42538;SDS011;28173;51.376;6.760;2023-01-16T05:06:41;2.40;;;1.10;;
42538;SDS011;28173;51.376;6.760;2023-01-16T05:09:08;1.65;;;1.00;;
42538;SDS011;28173;51.376;6.760;2023-01-16T05:11:35;2.45;;;0.90;;
42538;SDS011;28173;51.376;6.760;2023-01-16T05:14:01;3.30;;;1.10;;
42538;SDS011;28173;51.376;6.760;2023-01-16T05:16:28;4.35;;;1.45;;
42538;SDS011;28173;51.376;6.760;2023-01-16T05:18:55;1.73;;;0.82;;
42538;SDS011;28173;51.376;6.760;2023-01-16T05:21:21;3.13;;;1.00;;
42538;SDS011;28173;51.376;6.760;2023-01-16T05:23:48;1.60;;;1.00;;
42538;SDS011;28173;51.376;6.760;2023-01-16T05:26:15;5.13;;;1.45;;
42538;SDS011;28173;51.376;6.760;2023-01-16T05:28:44;5.40;;;1.58;;
42538;SDS011;28173;51.376;6.760;2023-01-16T05:31:11;1.95;;;1.23;;
42538;SDS011;28173;51.376;6.760;2023-01-16T05:33:37;3.92;;;1.30;;
42538;SDS011;28173;51.376;6.760;2023-01-16T05:36:04;1.63;;;1.17;;
42538;SDS011;28173;51.376;6.760;2023-01-16T05:38:31;3.83;;;1.20;;
42538;SDS011;28173;51.376;6.760;2023-01-16T05:40:57;5.03;;;1.40;;
42538;SDS011;28173;51.376;6.760;2023-01-16T05:43:24;3.42;;;1.25;;
42538;SDS011;28173;51.376;6.760;2023-01-16T05:45:51;3.03;;;1.45;;
42538;SDS011;28173;51.376;6.760;2023-01-16T05:48:18;3.05;;;1.20;;
42538;SDS011;28173;51.376;6.760;2023-01-16T05:50:45;2.92;;;1.30;;
42538;SDS011;28173;51.376;6.760;2023-01-16T05:53:11;2.55;;;1.23;;
42538;SDS011;28173;51.376;6.760;2023-01-16T05:55:42;4.05;;;1.23;;
42538;SDS011;28173;51.376;6.760;2023-01-16T05:58:10;4.18;;;2.05;;
42538;SDS011;28173;51.376;6.760;2023-01-16T06:00:38;4.00;;;1.27;;
42538;SDS011;28173;51.376;6.760;2023-01-16T06:03:05;3.63;;;1.42;;
42538;SDS011;28173;51.376;6.760;2023-01-16T06:05:32;2.60;;;1.08;;
42538;SDS011;28173;51.376;6.760;2023-01-16T06:07:59;2.45;;;1.02;;
42538;SDS011;28173;51.376;6.760;2023-01-16T06:10:26;2.72;;;1.20;;
42538;SDS011;28173;51.376;6.760;2023-01-16T06:12:53;3.70;;;1.10;;
42538;SDS011;28173;51.376;6.760;2023-01-16T06:15:20;3.80;;;1.17;;
42538;SDS011;28173;51.376;6.760;2023-01-16T06:17:47;2.58;;;1.27;;
42538;SDS011;28173;51.376;6.760;2023-01-16T06:20:13;2.90;;;1.23;;
42538;SDS011;28173;51.376;6.760;2023-01-16T06:22:41;5.18;;;1.60;;
42538;SDS011;28173;51.376;6.760;2023-01-16T06:25:08;4.90;;;1.13;;
42538;SDS011;28173;51.376;6.760;2023-01-16T06:27:34;4.25;;;1.45;;
42538;SDS011;28173;51.376;6.760;2023-01-16T06:30:01;1.58;;;0.90;;
42538;SDS011;28173;51.376;6.760;2023-01-16T06:32:28;4.10;;;1.38;;
42538;SDS011;28173;51.376;6.760;2023-01-16T06:34:54;3.28;;;1.05;;
42538;SDS011;28173;51.376;6.760;2023-01-16T06:37:21;3.40;;;1.00;;
42538;SDS011;28173;51.376;6.760;2023-01-16T06:39:48;2.17;;;0.98;;
42538;SDS011;28173;51.376;6.760;2023-01-16T06:42:14;2.15;;;0.88;;
42538;SDS011;28173;51.376;6.760;2023-01-16T06:44:41;3.35;;;1.65;;
42538;SDS011;28173;51.376;6.760;2023-01-16T06:47:11;2.30;;;0.95;;
42538;SDS011;28173;51.376;6.760;2023-01-16T06:49:38;2.15;;;1.08;;
42538;SDS011;28173;51.376;6.760;2023-01-16T06:52:05;2.25;;;0.80;;
42538;SDS011;28173;51.376;6.760;2023-01-16T06:54:31;1.95;;;0.80;;
42538;SDS011;28173;51.376;6.760;2023-01-16T06:56:58;3.03;;;1.20;;
42538;SDS011;28173;51.376;6.760;2023-01-16T06:59:30;1.10;;;0.90;;
42538;SDS011;28173;51.376;6.760;2023-01-16T07:01:57;4.85;;;1.17;;
42538;SDS011;28173;51.376;6.760;2023-01-16T07:04:25;2.88;;;1.10;;
42538;SDS011;28173;51.376;6.760;2023-01-16T07:06:52;0.68;;;0.68;;
42538;SDS011;28173;51.376;6.760;2023-01-16T07:09:18;2.05;;;1.10;;
42538;SDS011;28173;51.376;6.760;2023-01-16T07:11:50;3.38;;;1.20;;
42538;SDS011;28173;51.376;6.760;2023-01-16T07:14:19;2.28;;;1.20;;
42538;SDS011;28173;51.376;6.760;2023-01-16T07:17:04;2.75;;;1.17;;
42538;SDS011;28173;51.376;6.760;2023-01-16T07:19:49;3.60;;;1.33;;
42538;SDS011;28173;51.376;6.760;2023-01-16T07:22:35;1.52;;;0.93;;
42538;SDS011;28173;51.376;6.760;2023-01-16T07:25:07;2.47;;;0.98;;
42538;SDS011;28173;51.376;6.760;2023-01-16T07:27:37;2.88;;;1.10;;
42538;SDS011;28173;51.376;6.760;2023-01-16T07:30:11;1.80;;;0.95;;
42538;SDS011;28173;51.376;6.760;2023-01-16T07:32:38;2.13;;;0.88;;
42538;SDS011;28173;51.376;6.760;2023-01-16T07:35:10;2.10;;;1.00;;
42538;SDS011;28173;51.376;6.760;2023-01-16T07:37:37;4.20;;;1.20;;
42538;SDS011;28173;51.376;6.760;2023-01-16T07:40:05;7.20;;;1.40;;
42538;SDS011;28173;51.376;6.760;2023-01-16T07:42:33;4.55;;;1.25;;
42538;SDS011;28173;51.376;6.760;2023-01-16T07:45:00;2.97;;;1.42;;
42538;SDS011;28173;51.376;6.760;2023-01-16T07:47:27;3.72;;;1.35;;
42538;SDS011;28173;51.376;6.760;2023-01-16T07:49:53;2.78;;;1.23;;
42538;SDS011;28173;51.376;6.760;2023-01-16T07:52:20;3.70;;;1.30;;
42538;SDS011;28173;51.376;6.760;2023-01-16T07:54:47;4.10;;;1.30;;
42538;SDS011;28173;51.376;6.760;2023-01-16T07:57:16;3.65;;;1.20;;
42538;SDS011;28173;51.376;6.760;2023-01-16T07:59:43;2.65;;;1.40;;
42538;SDS011;28173;51.376;6.760;2023-01-16T08:02:10;3.95;;;1.63;;
42538;SDS011;28173;51.376;6.760;2023-01-16T08:04:37;4.05;;;1.52;;
42538;SDS011;28173;51.376;6.760;2023-01-16T08:07:04;2.38;;;1.35;;
42538;SDS011;28173;51.376;6.760;2023-01-16T08:09:33;3.53;;;1.40;;
42538;SDS011;28173;51.376;6.760;2023-01-16T08:12:02;4.15;;;1.50;;
42538;SDS011;28173;51.376;6.760;2023-01-16T08:14:29;3.78;;;1.80;;
42538;SDS011;28173;51.376;6.760;2023-01-16T08:16:58;5.07;;;1.60;;
42538;SDS011;28173;51.376;6.760;2023-01-16T08:19:26;4.03;;;1.52;;
42538;SDS011;28173;51.376;6.760;2023-01-16T08:21:52;3.70;;;1.40;;
42538;SDS011;28173;51.376;6.760;2023-01-16T08:24:22;3.80;;;1.50;;
42538;SDS011;28173;51.376;6.760;2023-01-16T08:26:51;2.58;;;1.35;;
42538;SDS011;28173;51.376;6.760;2023-01-16T08:29:18;1.90;;;1.30;;
42538;SDS011;28173;51.376;6.760;2023-01-16T08:31:45;4.97;;;1.50;;
42538;SDS011;28173;51.376;6.760;2023-01-16T08:34:17;5.15;;;2.33;;
42538;SDS011;28173;51.376;6.760;2023-01-16T08:36:45;3.63;;;1.63;;
42538;SDS011;28173;51.376;6.760;2023-01-16T08:39:14;5.22;;;1.40;;
42538;SDS011;28173;51.376;6.760;2023-01-16T08:41:41;2.45;;;1.35;;
42538;SDS011;28173;51.376;6.760;2023-01-16T08:44:29;5.85;;;1.30;;
42538;SDS011;28173;51.376;6.760;2023-01-16T08:47:21;3.78;;;1.42;;
42538;SDS011;28173;51.376;6.760;2023-01-16T08:50:11;3.00;;;1.30;;
42538;SDS011;28173;51.376;6.760;2023-01-16T08:52:58;3.67;;;1.55;;
42538;SDS011;28173;51.376;6.760;2023-01-16T08:55:24;4.00;;;1.45;;
42538;SDS011;28173;51.376;6.760;2023-01-16T08:57:54;6.07;;;1.83;;
42538;SDS011;28173;51.376;6.760;2023-01-16T09:00:23;2.80;;;1.70;;
42538;SDS011;28173;51.376;6.760;2023-01-16T09:02:50;6.53;;;2.20;;
42538;SDS011;28173;51.376;6.760;2023-01-16T09:05:17;4.95;;;1.75;;
42538;SDS011;28173;51.376;6.760;2023-01-16T09:07:44;5.60;;;2.33;;
42538;SDS011;28173;51.376;6.760;2023-01-16T09:10:10;4.90;;;1.83;;
42538;SDS011;28173;51.376;6.760;2023-01-16T09:12:42;3.42;;;1.40;;
42538;SDS011;28173;51.376;6.760;2023-01-16T09:15:27;4.72;;;1.55;;
42538;SDS011;28173;51.376;6.760;2023-01-16T09:17:54;5.72;;;2.03;;
42538;SDS011;28173;51.376;6.760;2023-01-16T09:20:24;5.90;;;1.98;;
42538;SDS011;28173;51.376;6.760;2023-01-16T09:23:01;7.47;;;1.90;;
42538;SDS011;28173;51.376;6.760;2023-01-16T09:25:29;2.60;;;1.15;;
42538;SDS011;28173;51.376;6.760;2023-01-16T09:27:57;3.83;;;1.27;;
42538;SDS011;28173;51.376;6.760;2023-01-16T09:30:27;2.45;;;1.30;;
42538;SDS011;28173;51.376;6.760;2023-01-16T09:32:54;3.55;;;1.30;;
42538;SDS011;28173;51.376;6.760;2023-01-16T09:35:24;3.55;;;1.17;;
42538;SDS011;28173;51.376;6.760;2023-01-16T09:37:54;4.03;;;0.98;;
42538;SDS011;28173;51.376;6.760;2023-01-16T09:40:21;2.92;;;1.25;;
42538;SDS011;28173;51.376;6.760;2023-01-16T09:45:35;1.73;;;1.10;;
42538;SDS011;28173;51.376;6.760;2023-01-16T09:48:07;3.42;;;2.15;;
42538;SDS011;28173;51.376;6.760;2023-01-16T09:50:39;5.18;;;1.85;;
42538;SDS011;28173;51.376;6.760;2023-01-16T09:54:00;3.78;;;2.03;;
42538;SDS011;28173;51.376;6.760;2023-01-16T09:56:37;3.65;;;1.45;;
42538;SDS011;28173;51.376;6.760;2023-01-16T09:59:37;5.85;;;2.00;;
42538;SDS011;28173;51.376;6.760;2023-01-16T10:04:54;2.92;;;1.33;;
42538;SDS011;28173;51.376;6.760;2023-01-16T10:15:57;2.80;;;1.20;;
42538;SDS011;28173;51.376;6.760;2023-01-16T10:19:12;2.17;;;1.20;;
42538;SDS011;28173;51.376;6.760;2023-01-16T10:24:33;2.03;;;0.73;;
42538;SDS011;28173;51.376;6.760;2023-01-16T10:27:21;2.97;;;1.03;;
42538;SDS011;28173;51.376;6.760;2023-01-16T10:35:00;2.70;;;1.00;;
42538;SDS011;28173;51.376;6.760;2023-01-16T10:37:32;3.05;;;1.30;;
42538;SDS011;28173;51.376;6.760;2023-01-16T10:40:07;2.15;;;1.00;;
42538;SDS011;28173;51.376;6.760;2023-01-16T10:42:39;2.78;;;1.10;;
42538;SDS011;28173;51.376;6.760;2023-01-16T10:45:25;1.30;;;1.00;;
42538;SDS011;28173;51.376;6.760;2023-01-16T10:48:14;2.90;;;1.30;;
42538;SDS011;28173;51.376;6.760;2023-01-16T10:51:00;1.02;;;0.85;;
42538;SDS011;28173;51.376;6.760;2023-01-16T10:53:28;1.67;;;1.00;;
42538;SDS011;28173;51.376;6.760;2023-01-16T10:55:58;3.78;;;1.00;;
42538;SDS011;28173;51.376;6.760;2023-01-16T10:58:29;2.05;;;0.70;;
42538;SDS011;28173;51.376;6.760;2023-01-16T11:01:20;2.08;;;1.05;;
42538;SDS011;28173;51.376;6.760;2023-01-16T11:03:52;1.25;;;1.00;;
42538;SDS011;28173;51.376;6.760;2023-01-16T11:08:47;2.60;;;1.02;;
42538;SDS011;28173;51.376;6.760;2023-01-16T11:11:20;2.15;;;0.90;;
42538;SDS011;28173;51.376;6.760;2023-01-16T11:14:16;1.55;;;1.10;;
42538;SDS011;28173;51.376;6.760;2023-01-16T11:20:28;93.10;;;59.33;;
42538;SDS011;28173;51.376;6.760;2023-01-16T11:25:35;277.52;;;158.32;;
42538;SDS011;28173;51.376;6.760;2023-01-16T11:28:04;356.25;;;213.80;;
42538;SDS011;28173;51.376;6.760;2023-01-16T11:30:36;87.28;;;52.92;;
42538;SDS011;28173;51.376;6.760;2023-01-16T11:33:11;63.05;;;40.05;;
42538;SDS011;28173;51.376;6.760;2023-01-16T11:35:42;8.43;;;6.18;;
42538;SDS011;28173;51.376;6.760;2023-01-16T11:38:14;27.02;;;17.20;;
42538;SDS011;28173;51.376;6.760;2023-01-16T11:40:45;1.77;;;1.30;;
42538;SDS011;28173;51.376;6.760;2023-01-16T11:43:14;2.00;;;1.33;;
42538;SDS011;28173;51.376;6.760;2023-01-16T11:48:59;71.35;;;39.15;;
42538;SDS011;28173;51.376;6.760;2023-01-16T11:51:43;13.75;;;8.18;;
42538;SDS011;28173;51.376;6.760;2023-01-16T11:54:11;48.05;;;32.47;;
42538;SDS011;28173;51.376;6.760;2023-01-16T11:56:49;135.38;;;88.95;;
42538;SDS011;28173;51.376;6.760;2023-01-16T11:59:34;2.40;;;1.88;;
42538;SDS011;28173;51.376;6.760;2023-01-16T12:02:22;2.05;;;1.20;;
42538;SDS011;28173;51.376;6.760;2023-01-16T12:14:26;1.52;;;0.82;;
42538;SDS011;28173;51.376;6.760;2023-01-16T12:34:08;1.30;;;0.90;;
42538;SDS011;28173;51.376;6.760;2023-01-16T12:45:41;3.78;;;1.20;;
42538;SDS011;28173;51.376;6.760;2023-01-16T12:48:20;1.70;;;1.00;;
42538;SDS011;28173;51.376;6.760;2023-01-16T12:59:14;2.13;;;0.98;;
42538;SDS011;28173;51.376;6.760;2023-01-16T13:01:45;1.45;;;1.10;;
42538;SDS011;28173;51.376;6.760;2023-01-16T13:04:15;1.20;;;0.95;;
42538;SDS011;28173;51.376;6.760;2023-01-16T13:06:48;2.28;;;0.80;;
42538;SDS011;28173;51.376;6.760;2023-01-16T13:09:59;1.83;;;1.02;;
42538;SDS011;28173;51.376;6.760;2023-01-16T13:12:48;1.45;;;1.23;;
42538;SDS011;28173;51.376;6.760;2023-01-16T13:15:37;2.45;;;1.25;;
42538;SDS011;28173;51.376;6.760;2023-01-16T13:18:18;4.07;;;1.15;;
42538;SDS011;28173;51.376;6.760;2023-01-16T13:20:49;1.35;;;1.08;;
42538;SDS011;28173;51.376;6.760;2023-01-16T13:23:20;1.35;;;0.90;;
42538;SDS011;28173;51.376;6.760;2023-01-16T13:25:55;2.05;;;1.17;;
42538;SDS011;28173;51.376;6.760;2023-01-16T13:28:38;1.70;;;1.10;;
42538;SDS011;28173;51.376;6.760;2023-01-16T13:31:17;1.02;;;0.90;;
42538;SDS011;28173;51.376;6.760;2023-01-16T13:33:49;2.03;;;0.90;;
42538;SDS011;28173;51.376;6.760;2023-01-16T13:39:34;1.08;;;0.98;;
42538;SDS011;28173;51.376;6.760;2023-01-16T13:42:09;2.53;;;1.20;;
42538;SDS011;28173;51.376;6.760;2023-01-16T13:44:38;2.58;;;1.00;;
42538;SDS011;28173;51.376;6.760;2023-01-16T13:47:37;2.58;;;1.08;;
42538;SDS011;28173;51.376;6.760;2023-01-16T13:52:56;1.65;;;1.20;;
42538;SDS011;28173;51.376;6.760;2023-01-16T13:55:35;2.03;;;1.20;;
42538;SDS011;28173;51.376;6.760;2023-01-16T14:00:43;2.15;;;1.10;;
42538;SDS011;28173;51.376;6.760;2023-01-16T14:05:51;3.17;;;1.10;;
42538;SDS011;28173;51.376;6.760;2023-01-16T14:17:27;4.03;;;1.00;;
42538;SDS011;28173;51.376;6.760;2023-01-16T14:20:03;2.40;;;0.98;;
42538;SDS011;28173;51.376;6.760;2023-01-16T14:23:12;2.20;;;1.30;;
42538;SDS011;28173;51.376;6.760;2023-01-16T14:26:01;2.47;;;1.05;;
42538;SDS011;28173;51.376;6.760;2023-01-16T14:28:28;1.30;;;0.80;;
42538;SDS011;28173;51.376;6.760;2023-01-16T14:30:55;4.72;;;1.20;;
42538;SDS011;28173;51.376;6.760;2023-01-16T14:33:24;1.35;;;0.90;;
42538;SDS011;28173;51.376;6.760;2023-01-16T14:35:54;3.33;;;1.10;;
42538;SDS011;28173;51.376;6.760;2023-01-16T14:38:25;2.30;;;1.60;;
42538;SDS011;28173;51.376;6.760;2023-01-16T14:41:01;3.63;;;1.30;;
42538;SDS011;28173;51.376;6.760;2023-01-16T14:44:32;3.33;;;1.60;;
42538;SDS011;28173;51.376;6.760;2023-01-16T14:50:16;2.33;;;1.80;;
42538;SDS011;28173;51.376;6.760;2023-01-16T14:55:57;3.10;;;1.70;;
42538;SDS011;28173;51.376;6.760;2023-01-16T15:01:46;1.50;;;1.40;;
42538;SDS011;28173;51.376;6.760;2023-01-16T15:05:12;3.33;;;1.25;;
42538;SDS011;28173;51.376;6.760;2023-01-16T15:07:48;3.95;;;1.50;;
42538;SDS011;28173;51.376;6.760;2023-01-16T15:12:50;1.40;;;0.98;;
42538;SDS011;28173;51.376;6.760;2023-01-16T15:17:48;3.85;;;1.20;;
42538;SDS011;28173;51.376;6.760;2023-01-16T15:20:38;2.20;;;2.10;;
42538;SDS011;28173;51.376;6.760;2023-01-16T15:23:27;1.90;;;1.50;;
42538;SDS011;28173;51.376;6.760;2023-01-16T15:31:36;1.55;;;1.00;;
42538;SDS011;28173;51.376;6.760;2023-01-16T15:34:11;1.48;;;0.90;;
42538;SDS011;28173;51.376;6.760;2023-01-16T15:36:48;2.13;;;1.15;;
42538;SDS011;28173;51.376;6.760;2023-01-16T15:42:04;2.10;;;1.48;;
42538;SDS011;28173;51.376;6.760;2023-01-16T15:44:56;4.38;;;1.60;;
42538;SDS011;28173;51.376;6.760;2023-01-16T15:53:22;3.22;;;1.67;;
42538;SDS011;28173;51.376;6.760;2023-01-16T15:55:50;2.35;;;1.60;;
42538;SDS011;28173;51.376;6.760;2023-01-16T15:58:19;3.13;;;1.83;;
42538;SDS011;28173;51.376;6.760;2023-01-16T16:00:58;3.50;;;1.52;;
42538;SDS011;28173;51.376;6.760;2023-01-16T16:03:37;2.50;;;1.10;;
42538;SDS011;28173;51.376;6.760;2023-01-16T16:06:08;3.08;;;1.38;;
42538;SDS011;28173;51.376;6.760;2023-01-16T16:08:45;2.00;;;1.35;;
42538;SDS011;28173;51.376;6.760;2023-01-16T16:11:31;2.90;;;1.45;;
42538;SDS011;28173;51.376;6.760;2023-01-16T16:14:36;2.28;;;1.45;;
42538;SDS011;28173;51.376;6.760;2023-01-16T16:25:51;2.40;;;1.38;;
42538;SDS011;28173;51.376;6.760;2023-01-16T16:28:33;1.50;;;1.40;;
42538;SDS011;28173;51.376;6.760;2023-01-16T16:31:22;2.00;;;1.80;;
42538;SDS011;28173;51.376;6.760;2023-01-16T16:33:55;4.28;;;1.52;;
42538;SDS011;28173;51.376;6.760;2023-01-16T16:36:34;1.83;;;1.13;;
42538;SDS011;28173;51.376;6.760;2023-01-16T16:39:02;1.90;;;1.50;;
42538;SDS011;28173;51.376;6.760;2023-01-16T16:43:57;1.80;;;1.70;;
42538;SDS011;28173;51.376;6.760;2023-01-16T16:48:54;3.72;;;1.98;;
42538;SDS011;28173;51.376;6.760;2023-01-16T16:51:28;3.58;;;2.03;;
42538;SDS011;28173;51.376;6.760;2023-01-16T16:54:05;3.85;;;1.90;;
42538;SDS011;28173;51.376;6.760;2023-01-16T16:56:36;4.20;;;2.20;;
42538;SDS011;28173;51.376;6.760;2023-01-16T16:59:04;3.33;;;2.22;;
42538;SDS011;28173;51.376;6.760;2023-01-16T17:01:35;4.30;;;2.25;;
42538;SDS011;28173;51.376;6.760;2023-01-16T17:04:03;10.13;;;2.42;;
42538;SDS011;28173;51.376;6.760;2023-01-16T17:06:31;2.95;;;1.92;;
42538;SDS011;28173;51.376;6.760;2023-01-16T17:09:00;4.97;;;2.25;;
42538;SDS011;28173;51.376;6.760;2023-01-16T17:11:26;4.70;;;2.47;;
42538;SDS011;28173;51.376;6.760;2023-01-16T17:13:53;5.40;;;3.10;;
42538;SDS011;28173;51.376;6.760;2023-01-16T17:16:24;5.43;;;2.42;;
42538;SDS011;28173;51.376;6.760;2023-01-16T17:21:46;3.03;;;2.08;;
42538;SDS011;28173;51.376;6.760;2023-01-16T17:24:23;2.67;;;1.98;;
42538;SDS011;28173;51.376;6.760;2023-01-16T17:26:53;3.38;;;2.10;;
42538;SDS011;28173;51.376;6.760;2023-01-16T17:29:20;3.08;;;2.10;;
42538;SDS011;28173;51.376;6.760;2023-01-16T17:31:47;3.67;;;2.50;;
42538;SDS011;28173;51.376;6.760;2023-01-16T17:34:21;4.85;;;2.60;;
42538;SDS011;28173;51.376;6.760;2023-01-16T17:36:50;3.78;;;2.30;;
42538;SDS011;28173;51.376;6.760;2023-01-16T17:39:19;2.40;;;1.95;;
42538;SDS011;28173;51.376;6.760;2023-01-16T17:41:47;2.10;;;1.90;;
42538;SDS011;28173;51.376;6.760;2023-01-16T17:44:14;2.88;;;2.17;;
42538;SDS011;28173;51.376;6.760;2023-01-16T17:47:04;2.97;;;2.15;;
42538;SDS011;28173;51.376;6.760;2023-01-16T17:49:32;3.25;;;2.10;;
42538;SDS011;28173;51.376;6.760;2023-01-16T17:52:22;2.60;;;2.38;;
42538;SDS011;28173;51.376;6.760;2023-01-16T17:54:54;4.50;;;3.17;;
42538;SDS011;28173;51.376;6.760;2023-01-16T17:57:42;3.47;;;2.20;;
42538;SDS011;28173;51.376;6.760;2023-01-16T18:00:13;3.08;;;2.42;;
42538;SDS011;28173;51.376;6.760;2023-01-16T18:02:40;5.25;;;2.67;;
42538;SDS011;28173;51.376;6.760;2023-01-16T18:05:12;3.90;;;2.85;;
42538;SDS011;28173;51.376;6.760;2023-01-16T18:07:38;3.97;;;2.80;;
42538;SDS011;28173;51.376;6.760;2023-01-16T18:10:10;4.82;;;3.45;;
42538;SDS011;28173;51.376;6.760;2023-01-16T18:12:41;6.10;;;3.00;;
42538;SDS011;28173;51.376;6.760;2023-01-16T18:15:28;4.95;;;2.90;;
42538;SDS011;28173;51.376;6.760;2023-01-16T18:18:14;4.93;;;3.60;;
42538;SDS011;28173;51.376;6.760;2023-01-16T18:20:44;3.25;;;2.92;;
42538;SDS011;28173;51.376;6.760;2023-01-16T18:23:11;4.80;;;2.95;;
42538;SDS011;28173;51.376;6.760;2023-01-16T18:25:42;3.58;;;2.80;;
42538;SDS011;28173;51.376;6.760;2023-01-16T18:28:13;3.10;;;2.80;;
42538;SDS011;28173;51.376;6.760;2023-01-16T18:30:40;4.75;;;2.92;;
42538;SDS011;28173;51.376;6.760;2023-01-16T18:33:06;5.25;;;4.13;;
42538;SDS011;28173;51.376;6.760;2023-01-16T18:35:36;5.32;;;3.70;;
42538;SDS011;28173;51.376;6.760;2023-01-16T18:38:10;5.57;;;3.45;;
42538;SDS011;28173;51.376;6.760;2023-01-16T18:40:56;5.80;;;4.90;;
42538;SDS011;28173;51.376;6.760;2023-01-16T18:43:41;3.67;;;3.22;;
42538;SDS011;28173;51.376;6.760;2023-01-16T18:46:27;3.58;;;2.75;;